sensor_id;sensor_type;location;lat;lon;timestamp;temperature;humidity
1075;DHT22;526;51.392;12.448;2023-02-03T00:01:11;2.90;97.30
1075;DHT22;526;51.392;12.448;2023-02-03T00:03:37;2.90;97.30
1075;DHT22;526;51.392;12.448;2023-02-03T00:06:03;2.90;97.30
1075;DHT22;526;51.392;12.448;2023-02-03T00:08:29;2.90;97.30
1075;DHT22;526;51.392;12.448;2023-02-03T00:10:55;2.90;97.30
1075;DHT22;526;51.392;12.448;2023-02-03T00:13:21;2.90;97.30
1075;DHT22;526;51.392;12.448;2023-02-03T00:15:47;2.90;97.30
1075;DHT22;526;51.392;12.448;2023-02-03T00:18:12;2.90;97.30
1075;DHT22;526;51.392;12.448;2023-02-03T00:20:38;2.90;97.30
1075;DHT22;526;51.392;12.448;2023-02-03T00:23:09;2.90;97.30
1075;DHT22;526;51.392;12.448;2023-02-03T00:25:35;2.90;97.30
1075;DHT22;526;51.392;12.448;2023-02-03T00:28:01;2.90;97.30
1075;DHT22;526;51.392;12.448;2023-02-03T00:30:27;2.90;97.30
1075;DHT22;526;51.392;12.448;2023-02-03T00:32:53;2.90;97.30
1075;DHT22;526;51.392;12.448;2023-02-03T00:35:18;2.90;97.30
1075;DHT22;526;51.392;12.448;2023-02-03T00:37:56;2.90;97.30
1075;DHT22;526;51.392;12.448;2023-02-03T00:40:24;2.90;97.30
1075;DHT22;526;51.392;12.448;2023-02-03T00:42:49;2.90;97.30
1075;DHT22;526;51.392;12.448;2023-02-03T00:45:15;2.90;97.30
1075;DHT22;526;51.392;12.448;2023-02-03T00:47:41;2.90;97.30
1075;DHT22;526;51.392;12.448;2023-02-03T00:50:07;2.90;97.30
1075;DHT22;526;51.392;12.448;2023-02-03T00:52:33;2.90;97.30
1075;DHT22;526;51.392;12.448;2023-02-03T00:54:58;2.90;97.30
1075;DHT22;526;51.392;12.448;2023-02-03T00:57:24;2.90;97.30
1075;DHT22;526;51.392;12.448;2023-02-03T00:59:49;2.90;97.30
1075;DHT22;526;51.392;12.448;2023-02-03T01:02:15;2.90;97.30
1075;DHT22;526;51.392;12.448;2023-02-03T01:04:43;2.90;97.30
1075;DHT22;526;51.392;12.448;2023-02-03T01:07:09;2.90;97.30
1075;DHT22;526;51.392;12.448;2023-02-03T01:09:35;2.90;97.30
1075;DHT22;526;51.392;12.448;2023-02-03T01:12:02;2.90;97.30
1075;DHT22;526;51.392;12.448;2023-02-03T01:14:28;3.00;97.30
1075;DHT22;526;51.392;12.448;2023-02-03T01:16:53;3.00;97.30
1075;DHT22;526;51.392;12.448;2023-02-03T01:19:19;3.00;97.30
1075;DHT22;526;51.392;12.448;2023-02-03T01:21:44;3.00;97.30
1075;DHT22;526;51.392;12.448;2023-02-03T01:24:13;3.00;97.30
1075;DHT22;526;51.392;12.448;2023-02-03T01:26:41;3.10;97.30
1075;DHT22;526;51.392;12.448;2023-02-03T01:29:07;3.10;97.30
1075;DHT22;526;51.392;12.448;2023-02-03T01:31:38;3.10;97.30
1075;DHT22;526;51.392;12.448;2023-02-03T01:34:05;3.10;97.30
1075;DHT22;526;51.392;12.448;2023-02-03T01:36:32;3.10;97.30
1075;DHT22;526;51.392;12.448;2023-02-03T01:38:58;3.10;97.30
1075;DHT22;526;51.392;12.448;2023-02-03T01:41:27;3.10;97.30
1075;DHT22;526;51.392;12.448;2023-02-03T01:43:54;3.10;97.30
1075;DHT22;526;51.392;12.448;2023-02-03T01:49:09;3.20;97.30
1075;DHT22;526;51.392;12.448;2023-02-03T01:51:38;3.20;97.30
1075;DHT22;526;51.392;12.448;2023-02-03T01:54:06;3.20;97.30
1075;DHT22;526;51.392;12.448;2023-02-03T01:56:35;3.30;97.30
1075;DHT22;526;51.392;12.448;2023-02-03T01:59:03;3.30;97.30
1075;DHT22;526;51.392;12.448;2023-02-03T02:01:31;3.30;97.30
1075;DHT22;526;51.392;12.448;2023-02-03T02:04:00;3.30;97.30
1075;DHT22;526;51.392;12.448;2023-02-03T02:06:26;3.40;97.30
1075;DHT22;526;51.392;12.448;2023-02-03T02:08:52;3.40;97.30
1075;DHT22;526;51.392;12.448;2023-02-03T02:11:18;3.40;97.30
1075;DHT22;526;51.392;12.448;2023-02-03T02:13:49;3.50;97.30
1075;DHT22;526;51.392;12.448;2023-02-03T02:16:45;3.50;97.30
1075;DHT22;526;51.392;12.448;2023-02-03T02:19:42;3.50;97.30
1075;DHT22;526;51.392;12.448;2023-02-03T02:22:28;3.50;97.30
1075;DHT22;526;51.392;12.448;2023-02-03T02:25:20;3.60;97.30
1075;DHT22;526;51.392;12.448;2023-02-03T02:31:02;3.70;97.30
1075;DHT22;526;51.392;12.448;2023-02-03T02:36:31;3.70;97.30
1075;DHT22;526;51.392;12.448;2023-02-03T02:41:57;3.70;97.30
1075;DHT22;526;51.392;12.448;2023-02-03T02:44:40;3.80;97.30
1075;DHT22;526;51.392;12.448;2023-02-03T02:47:21;3.80;97.30
1075;DHT22;526;51.392;12.448;2023-02-03T02:50:06;3.90;97.30
1075;DHT22;526;51.392;12.448;2023-02-03T02:52:36;3.90;97.30
1075;DHT22;526;51.392;12.448;2023-02-03T02:55:16;4.00;97.30
1075;DHT22;526;51.392;12.448;2023-02-03T02:57:44;4.00;97.30
1075;DHT22;526;51.392;12.448;2023-02-03T03:00:11;4.10;97.30
1075;DHT22;526;51.392;12.448;2023-02-03T03:02:37;4.10;97.30
1075;DHT22;526;51.392;12.448;2023-02-03T03:05:08;4.20;97.30
1075;DHT22;526;51.392;12.448;2023-02-03T03:07:49;4.20;97.30
1075;DHT22;526;51.392;12.448;2023-02-03T03:10:19;4.30;97.30
1075;DHT22;526;51.392;12.448;2023-02-03T03:12:52;4.40;97.30
1075;DHT22;526;51.392;12.448;2023-02-03T03:15:23;4.50;97.30
1075;DHT22;526;51.392;12.448;2023-02-03T03:18:09;4.50;97.30
1075;DHT22;526;51.392;12.448;2023-02-03T03:20:38;4.60;97.30
1075;DHT22;526;51.392;12.448;2023-02-03T03:23:10;4.70;97.30
1075;DHT22;526;51.392;12.448;2023-02-03T03:25:45;4.80;97.30
1075;DHT22;526;51.392;12.448;2023-02-03T03:28:24;4.90;97.30
1075;DHT22;526;51.392;12.448;2023-02-03T03:30:53;4.90;97.30
1075;DHT22;526;51.392;12.448;2023-02-03T03:33:20;5.00;97.30
1075;DHT22;526;51.392;12.448;2023-02-03T03:35:57;5.10;97.30
1075;DHT22;526;51.392;12.448;2023-02-03T03:38:31;5.20;97.30
1075;DHT22;526;51.392;12.448;2023-02-03T03:44:12;5.30;97.30
1075;DHT22;526;51.392;12.448;2023-02-03T03:46:47;5.30;97.30
1075;DHT22;526;51.392;12.448;2023-02-03T03:49:15;5.40;97.30
1075;DHT22;526;51.392;12.448;2023-02-03T03:51:55;5.40;97.30
1075;DHT22;526;51.392;12.448;2023-02-03T03:54:23;5.50;97.30
1075;DHT22;526;51.392;12.448;2023-02-03T03:56:55;5.50;97.30
1075;DHT22;526;51.392;12.448;2023-02-03T03:59:23;5.60;97.30
1075;DHT22;526;51.392;12.448;2023-02-03T04:01:50;5.60;97.30
1075;DHT22;526;51.392;12.448;2023-02-03T04:04:16;5.60;97.30
1075;DHT22;526;51.392;12.448;2023-02-03T04:06:42;5.60;97.30
1075;DHT22;526;51.392;12.448;2023-02-03T04:09:07;5.60;97.30
1075;DHT22;526;51.392;12.448;2023-02-03T04:11:33;5.70;97.30
1075;DHT22;526;51.392;12.448;2023-02-03T04:14:17;5.70;97.30
1075;DHT22;526;51.392;12.448;2023-02-03T04:16:42;5.70;97.30
1075;DHT22;526;51.392;12.448;2023-02-03T04:19:08;5.70;97.30
1075;DHT22;526;51.392;12.448;2023-02-03T04:21:33;5.70;97.30
1075;DHT22;526;51.392;12.448;2023-02-03T04:23:59;5.80;97.30
1075;DHT22;526;51.392;12.448;2023-02-03T04:26:24;5.80;97.30
1075;DHT22;526;51.392;12.448;2023-02-03T04:28:50;5.90;97.30
1075;DHT22;526;51.392;12.448;2023-02-03T04:31:16;6.00;97.30
1075;DHT22;526;51.392;12.448;2023-02-03T04:33:41;6.10;97.30
1075;DHT22;526;51.392;12.448;2023-02-03T04:36:07;6.10;97.30
1075;DHT22;526;51.392;12.448;2023-02-03T04:38:33;6.20;97.30
1075;DHT22;526;51.392;12.448;2023-02-03T04:40:59;6.20;97.30
1075;DHT22;526;51.392;12.448;2023-02-03T04:43:24;6.30;97.30
1075;DHT22;526;51.392;12.448;2023-02-03T04:45:50;6.30;97.30
1075;DHT22;526;51.392;12.448;2023-02-03T04:48:15;6.30;97.30
1075;DHT22;526;51.392;12.448;2023-02-03T04:50:41;6.40;97.30
1075;DHT22;526;51.392;12.448;2023-02-03T04:53:06;6.40;97.30
1075;DHT22;526;51.392;12.448;2023-02-03T04:55:32;6.40;97.30
1075;DHT22;526;51.392;12.448;2023-02-03T04:57:58;6.40;97.30
1075;DHT22;526;51.392;12.448;2023-02-03T05:00:25;6.40;97.30
1075;DHT22;526;51.392;12.448;2023-02-03T05:02:51;6.50;97.30
1075;DHT22;526;51.392;12.448;2023-02-03T05:05:17;6.50;97.30
1075;DHT22;526;51.392;12.448;2023-02-03T05:07:42;6.50;97.30
1075;DHT22;526;51.392;12.448;2023-02-03T05:10:08;6.60;97.30
1075;DHT22;526;51.392;12.448;2023-02-03T05:12:34;6.60;97.30
1075;DHT22;526;51.392;12.448;2023-02-03T05:14:59;6.60;97.30
1075;DHT22;526;51.392;12.448;2023-02-03T05:17:25;6.60;97.30
1075;DHT22;526;51.392;12.448;2023-02-03T05:19:50;6.60;97.30
1075;DHT22;526;51.392;12.448;2023-02-03T05:22:16;6.70;97.30
1075;DHT22;526;51.392;12.448;2023-02-03T05:24:41;6.70;97.30
1075;DHT22;526;51.392;12.448;2023-02-03T05:27:07;6.70;97.30
1075;DHT22;526;51.392;12.448;2023-02-03T05:29:32;6.70;97.30
1075;DHT22;526;51.392;12.448;2023-02-03T05:31:58;6.70;97.30
1075;DHT22;526;51.392;12.448;2023-02-03T05:34:23;6.70;97.30
1075;DHT22;526;51.392;12.448;2023-02-03T05:36:49;6.70;97.30
1075;DHT22;526;51.392;12.448;2023-02-03T05:39:14;6.70;97.30
1075;DHT22;526;51.392;12.448;2023-02-03T05:41:40;6.70;97.30
1075;DHT22;526;51.392;12.448;2023-02-03T05:44:25;6.80;97.30
1075;DHT22;526;51.392;12.448;2023-02-03T05:46:52;6.80;97.30
1075;DHT22;526;51.392;12.448;2023-02-03T05:49:18;6.80;97.30
1075;DHT22;526;51.392;12.448;2023-02-03T05:51:45;6.80;97.30
1075;DHT22;526;51.392;12.448;2023-02-03T05:54:10;6.80;97.30
1075;DHT22;526;51.392;12.448;2023-02-03T05:56:37;6.90;97.30
1075;DHT22;526;51.392;12.448;2023-02-03T05:59:03;6.90;97.30
1075;DHT22;526;51.392;12.448;2023-02-03T06:01:29;6.90;97.30
1075;DHT22;526;51.392;12.448;2023-02-03T06:03:55;6.90;97.30
1075;DHT22;526;51.392;12.448;2023-02-03T06:06:20;6.90;97.30
1075;DHT22;526;51.392;12.448;2023-02-03T06:08:46;7.00;97.30
1075;DHT22;526;51.392;12.448;2023-02-03T06:11:11;7.00;97.30
1075;DHT22;526;51.392;12.448;2023-02-03T06:13:37;7.00;97.30
1075;DHT22;526;51.392;12.448;2023-02-03T06:16:03;7.00;97.30
1075;DHT22;526;51.392;12.448;2023-02-03T06:18:28;7.10;97.30
1075;DHT22;526;51.392;12.448;2023-02-03T06:20:54;7.10;97.30
1075;DHT22;526;51.392;12.448;2023-02-03T06:23:19;7.10;97.30
1075;DHT22;526;51.392;12.448;2023-02-03T06:25:48;7.10;97.30
1075;DHT22;526;51.392;12.448;2023-02-03T06:28:26;7.10;97.30
1075;DHT22;526;51.392;12.448;2023-02-03T06:30:55;7.20;97.30
1075;DHT22;526;51.392;12.448;2023-02-03T06:33:20;7.20;97.30
1075;DHT22;526;51.392;12.448;2023-02-03T06:35:48;7.20;97.30
1075;DHT22;526;51.392;12.448;2023-02-03T06:38:13;7.20;97.30
1075;DHT22;526;51.392;12.448;2023-02-03T06:40:39;7.30;97.30
1075;DHT22;526;51.392;12.448;2023-02-03T06:43:04;7.30;97.30
1075;DHT22;526;51.392;12.448;2023-02-03T06:45:30;7.30;97.30
1075;DHT22;526;51.392;12.448;2023-02-03T06:47:55;7.30;97.30
1075;DHT22;526;51.392;12.448;2023-02-03T06:50:21;7.30;97.30
1075;DHT22;526;51.392;12.448;2023-02-03T06:52:49;7.30;97.30
1075;DHT22;526;51.392;12.448;2023-02-03T06:55:14;7.30;97.30
1075;DHT22;526;51.392;12.448;2023-02-03T06:57:47;7.30;97.30
1075;DHT22;526;51.392;12.448;2023-02-03T07:00:15;7.30;97.30
1075;DHT22;526;51.392;12.448;2023-02-03T07:02:40;7.30;97.30
1075;DHT22;526;51.392;12.448;2023-02-03T07:05:06;7.40;97.30
1075;DHT22;526;51.392;12.448;2023-02-03T07:07:32;7.40;97.30
1075;DHT22;526;51.392;12.448;2023-02-03T07:09:59;7.40;97.30
1075;DHT22;526;51.392;12.448;2023-02-03T07:12:24;7.40;97.30
1075;DHT22;526;51.392;12.448;2023-02-03T07:14:50;7.40;97.30
1075;DHT22;526;51.392;12.448;2023-02-03T07:17:15;7.40;97.30
1075;DHT22;526;51.392;12.448;2023-02-03T07:19:41;7.40;97.30
1075;DHT22;526;51.392;12.448;2023-02-03T07:22:07;7.40;97.30
1075;DHT22;526;51.392;12.448;2023-02-03T07:24:33;7.50;97.30
1075;DHT22;526;51.392;12.448;2023-02-03T07:26:58;7.50;97.30
1075;DHT22;526;51.392;12.448;2023-02-03T07:29:24;7.50;97.30
1075;DHT22;526;51.392;12.448;2023-02-03T07:31:49;7.50;97.30
1075;DHT22;526;51.392;12.448;2023-02-03T07:34:15;7.50;97.30
1075;DHT22;526;51.392;12.448;2023-02-03T07:36:40;7.50;97.30
1075;DHT22;526;51.392;12.448;2023-02-03T07:39:06;7.50;97.30
1075;DHT22;526;51.392;12.448;2023-02-03T07:41:31;7.50;97.30
1075;DHT22;526;51.392;12.448;2023-02-03T07:43:57;7.50;97.30
1075;DHT22;526;51.392;12.448;2023-02-03T07:46:22;7.60;97.30
1075;DHT22;526;51.392;12.448;2023-02-03T07:48:48;7.60;97.30
1075;DHT22;526;51.392;12.448;2023-02-03T07:51:13;7.60;97.30
1075;DHT22;526;51.392;12.448;2023-02-03T07:53:39;7.60;97.30
1075;DHT22;526;51.392;12.448;2023-02-03T07:56:04;7.70;97.30
1075;DHT22;526;51.392;12.448;2023-02-03T07:58:30;7.70;97.30
1075;DHT22;526;51.392;12.448;2023-02-03T08:00:57;7.70;97.30
1075;DHT22;526;51.392;12.448;2023-02-03T08:03:23;7.70;97.30
1075;DHT22;526;51.392;12.448;2023-02-03T08:05:48;7.70;97.30
1075;DHT22;526;51.392;12.448;2023-02-03T08:08:14;7.70;97.30
1075;DHT22;526;51.392;12.448;2023-02-03T08:10:40;7.70;97.30
1075;DHT22;526;51.392;12.448;2023-02-03T08:13:06;7.70;97.30
1075;DHT22;526;51.392;12.448;2023-02-03T08:15:31;7.70;97.30
1075;DHT22;526;51.392;12.448;2023-02-03T08:17:59;7.80;97.30
1075;DHT22;526;51.392;12.448;2023-02-03T08:20:24;7.80;97.30
1075;DHT22;526;51.392;12.448;2023-02-03T08:22:51;7.80;97.30
1075;DHT22;526;51.392;12.448;2023-02-03T08:25:16;7.80;97.30
1075;DHT22;526;51.392;12.448;2023-02-03T08:27:42;7.80;97.30
1075;DHT22;526;51.392;12.448;2023-02-03T08:30:10;7.80;97.30
1075;DHT22;526;51.392;12.448;2023-02-03T08:32:36;7.80;97.30
1075;DHT22;526;51.392;12.448;2023-02-03T08:35:03;7.90;97.30
1075;DHT22;526;51.392;12.448;2023-02-03T08:37:28;7.90;97.30
1075;DHT22;526;51.392;12.448;2023-02-03T08:39:57;7.90;97.30
1075;DHT22;526;51.392;12.448;2023-02-03T08:42:23;7.90;97.30
1075;DHT22;526;51.392;12.448;2023-02-03T08:44:48;7.90;97.30
1075;DHT22;526;51.392;12.448;2023-02-03T08:47:14;7.90;97.30
1075;DHT22;526;51.392;12.448;2023-02-03T08:49:40;7.90;97.30
1075;DHT22;526;51.392;12.448;2023-02-03T08:52:07;7.90;97.30
1075;DHT22;526;51.392;12.448;2023-02-03T08:54:34;7.90;97.30
1075;DHT22;526;51.392;12.448;2023-02-03T08:57:00;8.00;97.30
1075;DHT22;526;51.392;12.448;2023-02-03T08:59:26;8.00;97.30
1075;DHT22;526;51.392;12.448;2023-02-03T09:01:52;8.00;97.30
1075;DHT22;526;51.392;12.448;2023-02-03T09:04:18;8.00;97.30
1075;DHT22;526;51.392;12.448;2023-02-03T09:06:47;8.00;97.30
1075;DHT22;526;51.392;12.448;2023-02-03T09:09:13;8.00;97.30
1075;DHT22;526;51.392;12.448;2023-02-03T09:11:40;8.10;97.30
1075;DHT22;526;51.392;12.448;2023-02-03T09:14:06;8.10;97.30
1075;DHT22;526;51.392;12.448;2023-02-03T09:16:32;8.10;97.30
1075;DHT22;526;51.392;12.448;2023-02-03T09:18:58;8.20;97.30
1075;DHT22;526;51.392;12.448;2023-02-03T09:21:23;8.20;97.30
1075;DHT22;526;51.392;12.448;2023-02-03T09:23:49;8.20;97.30
1075;DHT22;526;51.392;12.448;2023-02-03T09:26:15;8.20;97.30
1075;DHT22;526;51.392;12.448;2023-02-03T09:28:40;8.20;97.30
1075;DHT22;526;51.392;12.448;2023-02-03T09:31:08;8.30;97.30
1075;DHT22;526;51.392;12.448;2023-02-03T09:33:35;8.30;97.30
1075;DHT22;526;51.392;12.448;2023-02-03T09:36:01;8.30;97.30
1075;DHT22;526;51.392;12.448;2023-02-03T09:38:27;8.30;97.30
1075;DHT22;526;51.392;12.448;2023-02-03T09:44:22;8.40;97.30
1075;DHT22;526;51.392;12.448;2023-02-03T09:46:55;8.30;97.30
1075;DHT22;526;51.392;12.448;2023-02-03T09:49:50;8.30;97.30
1075;DHT22;526;51.392;12.448;2023-02-03T09:52:27;8.40;97.30
1075;DHT22;526;51.392;12.448;2023-02-03T09:57:54;8.40;97.30
1075;DHT22;526;51.392;12.448;2023-02-03T10:00:27;8.40;97.30
1075;DHT22;526;51.392;12.448;2023-02-03T10:03:01;8.40;97.30
1075;DHT22;526;51.392;12.448;2023-02-03T10:05:49;8.40;97.30
1075;DHT22;526;51.392;12.448;2023-02-03T10:10:58;8.40;97.30
1075;DHT22;526;51.392;12.448;2023-02-03T10:16:43;8.40;97.30
1075;DHT22;526;51.392;12.448;2023-02-03T10:19:19;8.40;97.30
1075;DHT22;526;51.392;12.448;2023-02-03T10:21:57;8.40;97.30
1075;DHT22;526;51.392;12.448;2023-02-03T10:24:31;8.40;97.30
1075;DHT22;526;51.392;12.448;2023-02-03T10:27:00;8.40;97.30
1075;DHT22;526;51.392;12.448;2023-02-03T10:29:35;8.40;97.30
1075;DHT22;526;51.392;12.448;2023-02-03T10:32:07;8.40;97.30
1075;DHT22;526;51.392;12.448;2023-02-03T10:34:33;8.40;97.30
1075;DHT22;526;51.392;12.448;2023-02-03T10:37:02;8.30;97.30
1075;DHT22;526;51.392;12.448;2023-02-03T10:39:31;8.40;97.30
1075;DHT22;526;51.392;12.448;2023-02-03T10:41:58;8.40;97.30
1075;DHT22;526;51.392;12.448;2023-02-03T10:44:32;8.40;97.30
1075;DHT22;526;51.392;12.448;2023-02-03T10:47:00;8.40;97.30
1075;DHT22;526;51.392;12.448;2023-02-03T10:49:27;8.40;97.30
1075;DHT22;526;51.392;12.448;2023-02-03T10:51:56;8.40;97.30
1075;DHT22;526;51.392;12.448;2023-02-03T10:54:32;8.40;97.30
1075;DHT22;526;51.392;12.448;2023-02-03T10:57:06;8.40;97.30
1075;DHT22;526;51.392;12.448;2023-02-03T10:59:36;8.40;97.30
1075;DHT22;526;51.392;12.448;2023-02-03T11:02:19;8.50;97.30
1075;DHT22;526;51.392;12.448;2023-02-03T11:04:45;8.50;97.30
1075;DHT22;526;51.392;12.448;2023-02-03T11:07:23;8.40;97.30
1075;DHT22;526;51.392;12.448;2023-02-03T11:09:49;8.40;97.30
1075;DHT22;526;51.392;12.448;2023-02-03T11:12:18;8.30;97.30
1075;DHT22;526;51.392;12.448;2023-02-03T11:14:48;8.30;97.30
1075;DHT22;526;51.392;12.448;2023-02-03T11:17:22;8.30;97.30
1075;DHT22;526;51.392;12.448;2023-02-03T11:19:50;8.30;97.30
1075;DHT22;526;51.392;12.448;2023-02-03T11:22:39;8.20;97.30
1075;DHT22;526;51.392;12.448;2023-02-03T11:25:17;8.30;97.30
1075;DHT22;526;51.392;12.448;2023-02-03T11:27:43;8.30;97.30
1075;DHT22;526;51.392;12.448;2023-02-03T11:30:16;8.20;97.30
1075;DHT22;526;51.392;12.448;2023-02-03T11:32:43;8.20;97.30
1075;DHT22;526;51.392;12.448;2023-02-03T11:35:27;8.20;97.30
1075;DHT22;526;51.392;12.448;2023-02-03T11:37:59;8.20;97.30
1075;DHT22;526;51.392;12.448;2023-02-03T11:40:31;8.20;97.30
1075;DHT22;526;51.392;12.448;2023-02-03T11:43:04;8.20;97.30
1075;DHT22;526;51.392;12.448;2023-02-03T11:45:48;8.20;97.30
1075;DHT22;526;51.392;12.448;2023-02-03T11:48:34;8.20;97.30
1075;DHT22;526;51.392;12.448;2023-02-03T12:07:39;8.20;97.30
1075;DHT22;526;51.392;12.448;2023-02-03T12:20:02;8.30;97.30
1075;DHT22;526;51.392;12.448;2023-02-03T12:29:42;8.40;97.30
1075;DHT22;526;51.392;12.448;2023-02-03T12:38:11;8.40;97.30
1075;DHT22;526;51.392;12.448;2023-02-03T12:40:51;8.40;97.30
1075;DHT22;526;51.392;12.448;2023-02-03T12:46:16;8.50;97.30
1075;DHT22;526;51.392;12.448;2023-02-03T12:51:55;8.60;97.30
1075;DHT22;526;51.392;12.448;2023-02-03T12:57:43;8.40;97.30
1075;DHT22;526;51.392;12.448;2023-02-03T13:09:04;8.20;97.30
1075;DHT22;526;51.392;12.448;2023-02-03T13:12:02;8.20;97.30
1075;DHT22;526;51.392;12.448;2023-02-03T13:14:52;8.20;97.30
1075;DHT22;526;51.392;12.448;2023-02-03T13:17:29;8.20;97.30
1075;DHT22;526;51.392;12.448;2023-02-03T13:20:01;8.10;97.30
1075;DHT22;526;51.392;12.448;2023-02-03T13:22:28;8.10;97.30
1075;DHT22;526;51.392;12.448;2023-02-03T13:25:16;8.10;97.30
1075;DHT22;526;51.392;12.448;2023-02-03T13:28:04;8.10;97.30
1075;DHT22;526;51.392;12.448;2023-02-03T13:36:25;8.10;97.30
1075;DHT22;526;51.392;12.448;2023-02-03T13:44:41;8.20;97.30
1075;DHT22;526;51.392;12.448;2023-02-03T13:47:15;8.20;97.30
1075;DHT22;526;51.392;12.448;2023-02-03T13:49:45;8.20;97.30
1075;DHT22;526;51.392;12.448;2023-02-03T13:52:33;8.20;97.30
1075;DHT22;526;51.392;12.448;2023-02-03T13:55:00;8.10;97.30
1075;DHT22;526;51.392;12.448;2023-02-03T13:57:35;8.00;97.30
1075;DHT22;526;51.392;12.448;2023-02-03T14:00:10;7.80;97.30
1075;DHT22;526;51.392;12.448;2023-02-03T14:02:52;7.70;97.30
1075;DHT22;526;51.392;12.448;2023-02-03T14:05:40;7.80;97.30
1075;DHT22;526;51.392;12.448;2023-02-03T14:08:46;7.80;97.30
1075;DHT22;526;51.392;12.448;2023-02-03T14:19:11;7.80;97.30
1075;DHT22;526;51.392;12.448;2023-02-03T14:21:43;7.80;97.30
1075;DHT22;526;51.392;12.448;2023-02-03T14:24:11;7.80;97.30
1075;DHT22;526;51.392;12.448;2023-02-03T14:26:42;7.80;97.30
1075;DHT22;526;51.392;12.448;2023-02-03T14:29:22;7.80;97.30
1075;DHT22;526;51.392;12.448;2023-02-03T14:32:02;7.80;97.30
1075;DHT22;526;51.392;12.448;2023-02-03T14:36:56;7.50;97.30
1075;DHT22;526;51.392;12.448;2023-02-03T14:50:46;7.20;97.30
1075;DHT22;526;51.392;12.448;2023-02-03T14:53:34;7.40;97.30
1075;DHT22;526;51.392;12.448;2023-02-03T14:56:26;7.40;97.30
1075;DHT22;526;51.392;12.448;2023-02-03T14:59:01;7.40;97.30
1075;DHT22;526;51.392;12.448;2023-02-03T15:06:47;7.30;97.30
1075;DHT22;526;51.392;12.448;2023-02-03T15:11:52;7.30;97.30
1075;DHT22;526;51.392;12.448;2023-02-03T15:14:24;7.30;97.30
1075;DHT22;526;51.392;12.448;2023-02-03T15:16:57;7.20;97.30
1075;DHT22;526;51.392;12.448;2023-02-03T15:19:31;7.20;97.30
1075;DHT22;526;51.392;12.448;2023-02-03T15:21:57;7.20;97.30
1075;DHT22;526;51.392;12.448;2023-02-03T15:24:23;7.20;97.30
1075;DHT22;526;51.392;12.448;2023-02-03T15:26:53;7.20;97.30
1075;DHT22;526;51.392;12.448;2023-02-03T15:29:22;7.30;97.30
1075;DHT22;526;51.392;12.448;2023-02-03T15:31:53;7.40;97.30
1075;DHT22;526;51.392;12.448;2023-02-03T15:34:32;7.40;97.30
1075;DHT22;526;51.392;12.448;2023-02-03T15:37:04;7.50;97.30
1075;DHT22;526;51.392;12.448;2023-02-03T15:39:42;7.60;97.30
1075;DHT22;526;51.392;12.448;2023-02-03T15:42:16;7.60;97.30
1075;DHT22;526;51.392;12.448;2023-02-03T15:44:55;7.70;97.30
1075;DHT22;526;51.392;12.448;2023-02-03T15:47:28;7.70;97.30
1075;DHT22;526;51.392;12.448;2023-02-03T15:50:18;7.70;97.30
1075;DHT22;526;51.392;12.448;2023-02-03T15:52:47;7.70;97.30
1075;DHT22;526;51.392;12.448;2023-02-03T15:55:36;7.80;97.30
1075;DHT22;526;51.392;12.448;2023-02-03T15:58:03;7.80;97.30
1075;DHT22;526;51.392;12.448;2023-02-03T16:00:36;7.80;97.30
1075;DHT22;526;51.392;12.448;2023-02-03T16:03:15;7.80;97.30
1075;DHT22;526;51.392;12.448;2023-02-03T16:05:43;7.80;97.30
1075;DHT22;526;51.392;12.448;2023-02-03T16:08:34;7.70;97.30
1075;DHT22;526;51.392;12.448;2023-02-03T16:11:00;7.70;97.30
1075;DHT22;526;51.392;12.448;2023-02-03T16:13:27;7.70;97.30
1075;DHT22;526;51.392;12.448;2023-02-03T16:18:29;7.70;97.30
1075;DHT22;526;51.392;12.448;2023-02-03T16:20:56;7.70;97.30
1075;DHT22;526;51.392;12.448;2023-02-03T16:23:23;7.70;97.30
1075;DHT22;526;51.392;12.448;2023-02-03T16:26:03;7.60;97.30
1075;DHT22;526;51.392;12.448;2023-02-03T16:28:28;7.60;97.30
1075;DHT22;526;51.392;12.448;2023-02-03T16:31:18;7.70;97.30
1075;DHT22;526;51.392;12.448;2023-02-03T16:34:16;7.60;97.30
1075;DHT22;526;51.392;12.448;2023-02-03T16:37:00;7.60;97.30
1075;DHT22;526;51.392;12.448;2023-02-03T16:39:45;7.70;97.30
1075;DHT22;526;51.392;12.448;2023-02-03T16:42:37;7.60;97.30
1075;DHT22;526;51.392;12.448;2023-02-03T16:45:21;7.60;97.30
1075;DHT22;526;51.392;12.448;2023-02-03T16:48:09;7.60;97.30
1075;DHT22;526;51.392;12.448;2023-02-03T16:50:53;7.60;97.30
1075;DHT22;526;51.392;12.448;2023-02-03T16:53:31;7.60;97.30
1075;DHT22;526;51.392;12.448;2023-02-03T16:55:59;7.60;97.30
1075;DHT22;526;51.392;12.448;2023-02-03T16:58:26;7.60;97.30
1075;DHT22;526;51.392;12.448;2023-02-03T17:00:52;7.60;97.30
1075;DHT22;526;51.392;12.448;2023-02-03T17:03:21;7.60;97.30
1075;DHT22;526;51.392;12.448;2023-02-03T17:05:48;7.60;97.30
1075;DHT22;526;51.392;12.448;2023-02-03T17:08:31;7.50;97.10
1075;DHT22;526;51.392;12.448;2023-02-03T17:11:23;7.50;97.10
1075;DHT22;526;51.392;12.448;2023-02-03T17:13:50;7.50;96.90
1075;DHT22;526;51.392;12.448;2023-02-03T17:16:25;7.50;97.10
1075;DHT22;526;51.392;12.448;2023-02-03T17:19:00;7.50;97.30
1075;DHT22;526;51.392;12.448;2023-02-03T17:21:31;7.40;97.30
1075;DHT22;526;51.392;12.448;2023-02-03T17:23:59;7.40;97.30
1075;DHT22;526;51.392;12.448;2023-02-03T17:26:29;7.40;97.30
1075;DHT22;526;51.392;12.448;2023-02-03T17:28:55;7.40;97.30
1075;DHT22;526;51.392;12.448;2023-02-03T17:31:31;7.40;97.30
1075;DHT22;526;51.392;12.448;2023-02-03T17:33:59;7.40;97.30
1075;DHT22;526;51.392;12.448;2023-02-03T17:36:30;7.40;97.30
1075;DHT22;526;51.392;12.448;2023-02-03T17:38:56;7.30;97.30
1075;DHT22;526;51.392;12.448;2023-02-03T17:41:31;7.40;97.30
1075;DHT22;526;51.392;12.448;2023-02-03T17:44:01;7.40;97.30
1075;DHT22;526;51.392;12.448;2023-02-03T17:46:52;7.40;97.30
1075;DHT22;526;51.392;12.448;2023-02-03T17:49:21;7.30;97.30
1075;DHT22;526;51.392;12.448;2023-02-03T17:51:49;7.30;97.30
1075;DHT22;526;51.392;12.448;2023-02-03T17:54:20;7.20;97.30
1075;DHT22;526;51.392;12.448;2023-02-03T17:56:52;7.20;97.30
1075;DHT22;526;51.392;12.448;2023-02-03T17:59:20;7.20;97.30
1075;DHT22;526;51.392;12.448;2023-02-03T18:02:07;7.30;97.30
1075;DHT22;526;51.392;12.448;2023-02-03T18:04:38;7.30;97.30
1075;DHT22;526;51.392;12.448;2023-02-03T18:07:08;7.20;97.30
1075;DHT22;526;51.392;12.448;2023-02-03T18:09:34;7.20;97.30
1075;DHT22;526;51.392;12.448;2023-02-03T18:11:59;7.20;97.30
1075;DHT22;526;51.392;12.448;2023-02-03T18:14:25;7.20;97.30
1075;DHT22;526;51.392;12.448;2023-02-03T18:17:01;7.20;97.30
1075;DHT22;526;51.392;12.448;2023-02-03T18:19:49;7.20;97.30
1075;DHT22;526;51.392;12.448;2023-02-03T18:22:22;7.20;97.10
1075;DHT22;526;51.392;12.448;2023-02-03T18:28:02;7.20;97.00
1075;DHT22;526;51.392;12.448;2023-02-03T18:30:33;7.20;97.10
1075;DHT22;526;51.392;12.448;2023-02-03T18:33:11;7.20;97.20
1075;DHT22;526;51.392;12.448;2023-02-03T18:35:37;7.20;97.20
1075;DHT22;526;51.392;12.448;2023-02-03T18:38:13;7.20;97.20
1075;DHT22;526;51.392;12.448;2023-02-03T18:40:42;7.20;97.00
1075;DHT22;526;51.392;12.448;2023-02-03T18:43:15;7.20;97.20
1075;DHT22;526;51.392;12.448;2023-02-03T18:45:43;7.20;97.20
1075;DHT22;526;51.392;12.448;2023-02-03T18:48:24;7.20;97.10
1075;DHT22;526;51.392;12.448;2023-02-03T18:50:50;7.20;97.00